createdAt,value
2022-09-04T00:02:37.836Z,1.60
2022-09-04T00:05:42.800Z,2.10
2022-09-04T00:08:56.831Z,2.28
2022-09-04T00:11:49.007Z,2.00
2022-09-04T00:14:54.817Z,2.42
2022-09-04T00:17:42.888Z,1.70
2022-09-04T00:20:35.824Z,2.30
2022-09-04T00:23:20.830Z,1.70
2022-09-04T00:26:28.823Z,1.85
2022-09-04T00:29:34.822Z,1.67
2022-09-04T00:32:21.838Z,1.42
2022-09-04T00:34:55.896Z,1.77
2022-09-04T00:38:20.815Z,1.90
2022-09-04T00:40:59.893Z,1.60
2022-09-04T00:44:02.818Z,1.48
2022-09-04T00:46:55.911Z,1.43
2022-09-04T00:50:18.843Z,1.30
2022-09-04T00:53:17.853Z,1.48
2022-09-04T00:56:18.342Z,1.50
2022-09-04T00:59:05.831Z,1.20
2022-09-04T01:01:40.271Z,1.30
2022-09-04T01:04:47.847Z,1.80
2022-09-04T01:07:35.377Z,1.80
2022-09-04T01:10:43.851Z,2.25
2022-09-04T01:13:51.838Z,2.22
2022-09-04T01:16:44.911Z,1.67
2022-09-04T01:19:43.843Z,2.00
2022-09-04T01:23:06.833Z,1.30
2022-09-04T01:26:05.858Z,2.17
2022-09-04T01:29:22.831Z,1.60
2022-09-04T01:32:19.871Z,1.50
2022-09-04T01:35:03.014Z,1.52
2022-09-04T01:37:55.860Z,1.58
2022-09-04T01:40:35.885Z,1.58
2022-09-04T01:43:28.842Z,1.70
2022-09-04T01:46:09.989Z,1.75
2022-09-04T01:49:06.880Z,1.33
2022-09-04T01:51:47.931Z,1.40
2022-09-04T01:54:33.863Z,1.70
2022-09-04T01:57:34.937Z,2.10
2022-09-04T02:00:21.858Z,2.17
2022-09-04T02:03:37.863Z,1.90
2022-09-04T02:06:22.411Z,1.83
2022-09-04T02:09:27.846Z,1.70
2022-09-04T02:12:33.890Z,1.60
2022-09-04T02:15:49.870Z,1.83
2022-09-04T02:18:36.942Z,1.70
2022-09-04T02:21:49.869Z,1.90
2022-09-04T02:24:33.891Z,1.70
2022-09-04T02:27:33.869Z,1.65
2022-09-04T02:30:19.868Z,2.03
2022-09-04T02:33:23.876Z,1.60
2022-09-04T02:36:28.862Z,1.52
2022-09-04T02:39:31.014Z,1.63
2022-09-04T02:42:25.883Z,1.73
2022-09-04T02:45:14.962Z,1.50
2022-09-04T02:48:07.873Z,1.73
2022-09-04T02:51:13.947Z,1.40
2022-09-04T02:54:00.881Z,1.20
2022-09-04T02:56:41.968Z,1.17
2022-09-04T02:59:56.886Z,1.60
2022-09-04T03:02:37.971Z,1.40
2022-09-04T03:05:26.889Z,1.33
2022-09-04T03:08:14.900Z,1.40
2022-09-04T03:11:37.917Z,1.30
2022-09-04T03:14:30.877Z,1.30
2022-09-04T03:17:09.287Z,1.35
2022-09-04T03:19:58.884Z,1.23
2022-09-04T03:22:57.993Z,1.13
2022-09-04T03:25:46.902Z,1.17
2022-09-04T03:28:47.950Z,1.05
2022-09-04T03:31:50.996Z,1.27
2022-09-04T03:34:38.898Z,1.25
2022-09-04T03:37:23.685Z,1.20
2022-09-04T03:40:17.929Z,1.40
2022-09-04T03:42:54.946Z,1.23
2022-09-04T03:45:50.915Z,1.48
2022-09-04T03:48:32.898Z,1.35
2022-09-04T03:51:31.915Z,1.23
2022-09-04T03:54:05.826Z,2.08
2022-09-04T03:57:11.907Z,1.25
2022-09-04T03:59:51.906Z,1.08
2022-09-04T04:02:38.060Z,1.30
2022-09-04T04:05:17.924Z,1.50
2022-09-04T04:08:05.898Z,1.98
2022-09-04T04:10:40.311Z,1.50
2022-09-04T04:13:39.906Z,2.20
2022-09-04T04:16:32.905Z,1.52
2022-09-04T04:19:39.911Z,1.08
2022-09-04T04:22:42.944Z,1.40
2022-09-04T04:25:52.254Z,1.02
2022-09-04T04:28:36.923Z,1.42
2022-09-04T04:32:14.902Z,1.20
2022-09-04T04:35:11.920Z,1.10
2022-09-04T04:37:51.714Z,0.93
2022-09-04T04:40:38.907Z,0.98
2022-09-04T04:43:19.097Z,1.45
2022-09-04T04:46:21.941Z,1.00
2022-09-04T04:49:14.176Z,2.25
2022-09-04T04:52:14.941Z,1.60
2022-09-04T04:58:12.936Z,1.40
2022-09-04T05:01:03.167Z,1.27
2022-09-04T05:03:59.957Z,1.20
2022-09-04T05:06:46.041Z,1.13
2022-09-04T05:09:49.964Z,0.90
2022-09-04T05:13:12.937Z,1.13
2022-09-04T05:16:33.989Z,1.30
2022-09-04T05:20:08.954Z,1.40
2022-09-04T05:23:00.950Z,1.20
2022-09-04T05:25:46.804Z,1.08
2022-09-04T05:29:03.969Z,1.33
2022-09-04T05:32:02.145Z,1.20
2022-09-04T05:35:04.967Z,1.30
2022-09-04T05:37:48.659Z,1.02
2022-09-04T05:40:42.964Z,1.80
2022-09-04T05:43:22.497Z,1.25
2022-09-04T05:46:10.003Z,1.60
2022-09-04T05:48:51.341Z,1.23
2022-09-04T05:52:05.936Z,1.40
2022-09-04T05:55:11.200Z,1.55
2022-09-04T05:58:03.952Z,1.40
2022-09-04T06:01:08.945Z,1.20
2022-09-04T06:04:13.029Z,1.30
2022-09-04T06:07:11.967Z,0.95
2022-09-04T06:10:20.014Z,1.10
2022-09-04T06:13:14.975Z,1.20
2022-09-04T06:15:56.098Z,1.08
2022-09-04T06:19:04.970Z,2.20
2022-09-04T06:22:32.003Z,1.00
2022-09-04T06:25:37.962Z,1.48
2022-09-04T06:28:34.002Z,1.02
2022-09-04T06:31:08.094Z,0.93
2022-09-04T06:34:13.983Z,1.20
2022-09-04T06:37:18.071Z,1.13
2022-09-04T06:40:17.981Z,0.93
2022-09-04T06:43:00.040Z,1.40
2022-09-04T06:46:02.500Z,1.20
2022-09-04T06:48:57.975Z,0.98
2022-09-04T06:52:21.975Z,0.70
2022-09-04T06:55:28.000Z,0.82
2022-09-04T06:58:02.072Z,0.77
2022-09-04T07:00:55.012Z,0.95
2022-09-04T07:03:59.080Z,0.80
2022-09-04T07:07:13.004Z,0.90
2022-09-04T07:10:07.233Z,1.17
2022-09-04T07:13:16.004Z,0.80
2022-09-04T07:16:13.037Z,1.70
2022-09-04T07:19:25.986Z,1.30
2022-09-04T07:22:37.986Z,1.10
2022-09-04T07:25:19.124Z,1.02
2022-09-04T07:28:25.096Z,0.88
2022-09-04T07:31:16.229Z,2.00
2022-09-04T07:34:19.977Z,0.90
2022-09-04T07:37:11.087Z,1.63
2022-09-04T07:40:12.014Z,1.67
2022-09-04T07:42:52.982Z,1.05
2022-09-04T07:46:02.070Z,1.25
2022-09-04T07:49:02.007Z,1.27
2022-09-04T07:51:44.150Z,1.20
2022-09-04T07:54:51.991Z,1.27
2022-09-04T07:57:48.073Z,1.20
2022-09-04T08:00:42.003Z,1.23
2022-09-04T08:03:31.591Z,1.27
2022-09-04T08:06:49.005Z,1.13
2022-09-04T08:10:04.032Z,1.20
2022-09-04T08:13:31.997Z,1.10
2022-09-04T08:16:45.027Z,1.10
2022-09-04T08:19:30.090Z,1.20
2022-09-04T08:22:28.171Z,1.20
2022-09-04T08:25:17.160Z,1.27
2022-09-04T08:28:42.998Z,1.30
2022-09-04T08:31:30.214Z,1.15
2022-09-04T08:34:41.001Z,1.00
2022-09-04T08:37:21.110Z,1.00
2022-09-04T08:40:18.098Z,1.00
2022-09-04T08:43:43.042Z,1.08
2022-09-04T08:46:39.250Z,1.02
2022-09-04T08:49:38.051Z,1.00
2022-09-04T08:52:12.183Z,1.00
2022-09-04T08:55:21.038Z,1.08
2022-09-04T08:58:16.108Z,1.10
2022-09-04T09:01:03.081Z,0.98
2022-09-04T09:04:03.116Z,1.00
2022-09-04T09:06:59.031Z,1.10
2022-09-04T09:09:42.286Z,1.50
2022-09-04T09:12:57.057Z,1.00
2022-09-04T09:16:11.146Z,1.13
2022-09-04T09:19:23.048Z,0.75
2022-09-04T09:22:28.051Z,1.08
2022-09-04T09:25:32.110Z,1.05
2022-09-04T09:28:41.091Z,1.00
2022-09-04T09:32:15.062Z,1.00
2022-09-04T09:35:29.050Z,1.08
2022-09-04T09:38:38.063Z,0.93
2022-09-04T09:41:48.197Z,1.02
2022-09-04T09:44:49.058Z,0.90
2022-09-04T09:47:42.113Z,1.00
2022-09-04T09:50:48.059Z,1.23
2022-09-04T09:53:43.796Z,1.10
2022-09-04T09:56:55.078Z,1.10
2022-09-04T10:00:07.147Z,1.27
2022-09-04T10:03:08.066Z,0.95
2022-09-04T10:06:04.056Z,1.10
2022-09-04T10:09:16.087Z,1.10
2022-09-04T10:12:15.052Z,1.00
2022-09-04T10:14:54.141Z,0.80
2022-09-04T10:17:50.050Z,0.85
2022-09-04T10:20:35.290Z,1.00
2022-09-04T10:23:34.082Z,1.10
2022-09-04T10:26:31.824Z,0.95
2022-09-04T10:29:33.092Z,1.10
2022-09-04T10:32:14.141Z,1.15
2022-09-04T10:35:34.100Z,0.95
2022-09-04T10:38:28.196Z,1.08
2022-09-04T10:41:18.090Z,1.10
2022-09-04T10:44:04.298Z,1.08
2022-09-04T10:46:59.103Z,1.02
2022-09-04T10:49:52.133Z,0.82
2022-09-04T10:53:28.575Z,1.17
2022-09-04T10:56:42.092Z,0.90
2022-09-04T10:59:37.156Z,1.10
2022-09-04T11:02:25.136Z,0.98
2022-09-04T11:05:39.107Z,1.02
2022-09-04T11:08:33.098Z,1.23
2022-09-04T11:11:22.184Z,2.00
2022-09-04T11:14:14.090Z,1.00
2022-09-04T11:17:29.086Z,0.93
2022-09-04T11:20:42.119Z,1.02
2022-09-04T11:24:04.071Z,1.08
2022-09-04T11:26:54.897Z,1.00
2022-09-04T11:29:42.080Z,0.90
2022-09-04T11:32:16.282Z,1.08
2022-09-04T11:35:31.102Z,0.82
2022-09-04T11:38:29.188Z,0.90
2022-09-04T11:41:44.104Z,1.17
2022-09-04T11:44:18.205Z,1.20
2022-09-04T11:47:30.118Z,1.00
2022-09-04T11:50:42.693Z,0.90
2022-09-04T11:53:50.119Z,0.90
2022-09-04T11:56:24.219Z,1.15
2022-09-04T11:59:38.105Z,0.82
2022-09-04T12:02:23.257Z,1.10
2022-09-04T12:05:47.120Z,0.90
2022-09-04T12:09:00.108Z,1.00
2022-09-04T12:12:30.138Z,1.08
2022-09-04T12:16:00.176Z,1.10
2022-09-04T12:18:34.250Z,1.08
2022-09-04T12:21:33.117Z,0.98
2022-09-04T12:25:05.408Z,1.10
2022-09-04T12:28:31.099Z,1.00
2022-09-04T12:31:51.464Z,1.02
2022-09-04T12:35:16.120Z,0.95
2022-09-04T12:38:31.142Z,0.93
2022-09-04T12:41:12.139Z,0.95
2022-09-04T12:45:00.145Z,1.10
2022-09-04T12:48:26.139Z,1.20
2022-09-04T12:51:07.166Z,1.00
2022-09-04T12:54:20.124Z,1.00
2022-09-04T12:57:22.148Z,1.00
2022-09-04T13:00:16.878Z,1.00
2022-09-04T13:03:37.144Z,0.90
2022-09-04T13:09:59.176Z,1.00
2022-09-04T13:12:57.155Z,1.23
2022-09-04T13:16:04.250Z,1.17
2022-09-04T13:19:05.186Z,0.90
2022-09-04T13:22:05.161Z,1.00
2022-09-04T13:25:22.153Z,1.10
2022-09-04T13:28:27.193Z,1.00
2022-09-04T13:31:27.264Z,1.00
2022-09-04T13:34:34.086Z,1.20
2022-09-04T13:37:31.258Z,1.20
2022-09-04T13:40:36.162Z,1.40
2022-09-04T13:43:16.245Z,1.27
2022-09-04T13:46:13.305Z,1.15
2022-09-04T13:48:59.186Z,1.10
2022-09-04T13:51:52.155Z,1.40
2022-09-04T13:54:47.195Z,1.20
2022-09-04T13:57:39.182Z,1.30
2022-09-04T14:00:14.359Z,1.40
2022-09-04T14:03:09.195Z,1.25
2022-09-04T14:05:50.234Z,1.40
2022-09-04T14:08:31.220Z,1.02
2022-09-04T14:11:26.285Z,1.35
2022-09-04T14:14:47.202Z,3.35
2022-09-04T14:17:34.236Z,1.60
2022-09-04T14:20:28.207Z,1.88
2022-09-04T14:23:30.273Z,1.30
2022-09-04T14:26:46.188Z,1.40
2022-09-04T14:29:34.188Z,1.20
2022-09-04T14:32:41.108Z,1.13
2022-09-04T14:35:43.221Z,1.10
2022-09-04T14:38:49.397Z,1.15
2022-09-04T14:41:38.187Z,1.20
2022-09-04T14:44:46.213Z,1.20
2022-09-04T14:47:45.332Z,1.40
2022-09-04T14:50:26.187Z,6.47
2022-09-04T14:53:23.220Z,1.35
2022-09-04T14:56:42.200Z,1.50
2022-09-04T14:59:44.299Z,6.40
2022-09-04T15:02:33.220Z,3.15
2022-09-04T15:06:03.241Z,1.30
2022-09-04T15:08:40.797Z,1.38
2022-09-04T15:11:45.212Z,0.98
2022-09-04T15:14:39.206Z,1.30
2022-09-04T15:17:28.382Z,1.70
2022-09-04T15:20:35.225Z,1.27
2022-09-04T15:23:38.208Z,1.40
2022-09-04T15:26:22.186Z,1.02
2022-09-04T15:29:25.237Z,1.13
2022-09-04T15:32:09.423Z,1.38
2022-09-04T15:34:55.291Z,1.40
2022-09-04T15:37:36.208Z,1.55
2022-09-04T15:40:54.293Z,1.10
2022-09-04T15:43:54.211Z,1.38
2022-09-04T15:47:12.365Z,1.15
2022-09-04T15:50:36.197Z,1.15
2022-09-04T15:53:37.247Z,1.23
2022-09-04T15:56:27.219Z,1.02
2022-09-04T15:59:15.167Z,1.58
2022-09-04T16:02:02.275Z,1.15
2022-09-04T16:04:51.319Z,1.00
2022-09-04T16:08:13.247Z,1.42
2022-09-04T16:11:02.396Z,1.25
2022-09-04T16:14:00.261Z,1.02
2022-09-04T16:16:39.457Z,1.33
2022-09-04T16:19:32.267Z,1.30
2022-09-04T16:22:23.298Z,1.10
2022-09-04T16:25:35.257Z,0.82
2022-09-04T16:28:27.246Z,1.15
2022-09-04T16:31:27.268Z,0.90
2022-09-04T16:34:56.245Z,0.90
2022-09-04T16:37:48.359Z,0.80
2022-09-04T16:40:38.257Z,1.23
2022-09-04T16:43:38.261Z,1.02
2022-09-04T16:46:34.383Z,1.10
2022-09-04T16:49:29.270Z,1.00
2022-09-04T16:52:28.277Z,1.00
2022-09-04T16:55:33.268Z,1.20
2022-09-04T16:58:34.783Z,1.00
2022-09-04T17:01:16.392Z,1.15
2022-09-04T17:04:15.278Z,1.00
2022-09-04T17:07:31.268Z,1.17
2022-09-04T17:10:39.285Z,1.83
2022-09-04T17:13:54.495Z,2.05
2022-09-04T17:16:54.285Z,3.58
2022-09-04T17:19:42.268Z,5.75
2022-09-04T17:28:44.719Z,1.90
2022-09-04T17:29:17.548Z,1.70
2022-09-04T17:29:36.049Z,1.10
2022-09-04T17:32:58.372Z,1.80
2022-09-04T17:40:51.464Z,1.42
2022-09-04T17:40:57.003Z,1.92
2022-09-04T17:43:14.813Z,1.45
2022-09-04T17:46:02.429Z,1.60
2022-09-04T17:48:51.292Z,1.60
2022-09-04T17:51:35.681Z,1.67
2022-09-04T17:54:27.029Z,2.20
2022-09-04T17:57:16.278Z,1.95
2022-09-04T18:00:16.272Z,2.30
2022-09-04T18:02:58.389Z,1.98
2022-09-04T18:05:53.487Z,3.13
2022-09-04T18:08:55.795Z,2.72
2022-09-04T18:12:00.227Z,2.10
2022-09-04T18:15:23.044Z,2.13
2022-09-04T18:18:53.303Z,2.38
2022-09-04T18:21:27.373Z,1.85
2022-09-04T18:24:38.300Z,1.98
2022-09-04T18:27:39.314Z,1.85
2022-09-04T18:37:05.817Z,1.67
2022-09-04T18:37:08.883Z,1.55
2022-09-04T18:37:44.085Z,1.70
2022-09-04T18:41:20.823Z,2.97
2022-09-04T18:50:24.469Z,4.20
2022-09-04T18:50:49.495Z,4.25
2022-09-04T18:54:06.341Z,2.25
2022-09-04T18:56:59.310Z,2.50
2022-09-04T18:59:45.607Z,4.22
2022-09-04T19:02:50.779Z,3.20
2022-09-04T19:05:44.431Z,4.63
2022-09-04T19:08:31.391Z,3.72
2022-09-04T19:11:20.678Z,4.20
2022-09-04T19:14:30.347Z,5.40
2022-09-04T19:17:30.269Z,6.00
2022-09-04T19:20:27.365Z,4.47
2022-09-04T19:23:15.223Z,3.67
2022-09-04T19:26:03.353Z,2.83
2022-09-04T19:28:58.328Z,2.72
2022-09-04T19:31:45.471Z,2.58
2022-09-04T19:34:42.451Z,2.42
2022-09-04T19:38:49.580Z,1.92
2022-09-04T19:46:07.335Z,2.58
2022-09-04T19:46:16.094Z,1.95
2022-09-04T19:47:58.395Z,2.28
2022-09-04T19:53:21.408Z,1.65
2022-09-04T19:54:28.327Z,1.83
2022-09-04T19:57:38.319Z,1.98
2022-09-04T20:00:38.274Z,1.42
2022-09-04T20:03:45.929Z,1.35
2022-09-04T20:06:22.676Z,1.58
2022-09-04T20:09:19.321Z,1.75
2022-09-04T20:12:17.367Z,1.48
2022-09-04T20:15:28.254Z,1.63
2022-09-04T20:24:11.346Z,2.28
2022-09-04T20:27:16.858Z,2.60
2022-09-04T20:30:02.347Z,1.70
2022-09-04T20:33:09.500Z,1.80
2022-09-04T20:35:55.342Z,1.77
2022-09-04T20:38:55.917Z,1.77
2022-09-04T20:41:54.347Z,1.70
2022-09-04T20:46:26.442Z,1.63
2022-09-04T20:52:42.419Z,2.10
2022-09-04T20:54:58.535Z,1.95
2022-09-04T21:03:05.441Z,2.05
2022-09-04T21:03:18.287Z,2.13
2022-09-04T21:04:59.425Z,2.70
2022-09-04T21:07:41.439Z,2.90
2022-09-04T21:11:38.757Z,2.67
2022-09-04T21:14:12.367Z,2.35
2022-09-04T21:17:41.366Z,2.33
2022-09-04T21:20:41.846Z,2.28
2022-09-04T21:24:03.786Z,2.15
2022-09-04T21:29:25.458Z,1.80
2022-09-04T21:32:12.372Z,1.48
2022-09-04T21:35:22.698Z,1.88
2022-09-04T21:38:21.372Z,1.70
2022-09-04T21:41:19.540Z,1.33
2022-09-04T21:44:52.417Z,1.40
2022-09-04T21:47:47.463Z,1.50
2022-09-04T21:50:31.386Z,1.40
2022-09-04T21:53:44.400Z,2.42
2022-09-04T21:59:36.732Z,1.60
2022-09-04T22:02:39.551Z,1.60
2022-09-04T22:02:57.806Z,1.00
2022-09-04T22:05:50.390Z,1.25
2022-09-04T22:13:18.872Z,1.30
2022-09-04T22:13:31.596Z,1.20
2022-09-04T22:14:55.200Z,1.10
2022-09-04T22:17:56.417Z,1.40
2022-09-04T22:20:54.123Z,1.17
2022-09-04T22:23:59.385Z,0.98
2022-09-04T22:26:57.611Z,1.25
2022-09-04T22:29:57.385Z,0.75
2022-09-04T22:32:34.008Z,1.17
2022-09-04T22:35:23.388Z,1.02
2022-09-04T22:38:44.375Z,1.38
2022-09-04T22:41:40.497Z,1.00
2022-09-04T22:44:44.392Z,0.80
2022-09-04T22:47:34.444Z,1.00
2022-09-04T22:53:49.471Z,1.20
2022-09-04T22:57:01.397Z,1.10
2022-09-04T22:59:44.495Z,0.90
2022-09-04T23:06:52.693Z,1.23
2022-09-04T23:13:48.780Z,1.13
2022-09-04T23:13:51.500Z,1.20
2022-09-04T23:15:35.414Z,1.10
2022-09-04T23:20:55.737Z,1.35
2022-09-04T23:26:31.518Z,1.25
2022-09-04T23:26:45.162Z,1.00
2022-09-04T23:28:29.426Z,1.00
2022-09-04T23:31:29.129Z,1.30
2022-09-04T23:34:33.498Z,1.10
2022-09-04T23:37:41.417Z,1.30
2022-09-04T23:40:47.030Z,1.23
2022-09-04T23:43:54.408Z,1.30
2022-09-04T23:46:46.821Z,1.50
2022-09-04T23:50:06.424Z,1.33
2022-09-04T23:53:16.527Z,0.80
2022-09-04T23:56:34.414Z,1.63
2022-09-04T23:59:38.722Z,1.08
